sensor_id;sensor_type;location;lat;lon;timestamp;temperature;humidity
28438;DHT22;15667;52.376;9.708;2022-11-04T00:02:10;10.60;99.90
28438;DHT22;15667;52.376;9.708;2022-11-04T00:04:56;11.00;99.90
28438;DHT22;15667;52.376;9.708;2022-11-04T00:07:28;10.80;99.90
28438;DHT22;15667;52.376;9.708;2022-11-04T00:10:34;11.20;99.90
28438;DHT22;15667;52.376;9.708;2022-11-04T00:13:27;10.80;99.90
28438;DHT22;15667;52.376;9.708;2022-11-04T00:16:32;9.50;99.90
28438;DHT22;15667;52.376;9.708;2022-11-04T00:19:22;10.70;99.90
28438;DHT22;15667;52.376;9.708;2022-11-04T00:21:51;10.90;99.90
28438;DHT22;15667;52.376;9.708;2022-11-04T00:24:36;10.70;99.90
28438;DHT22;15667;52.376;9.708;2022-11-04T00:27:31;10.80;99.90
28438;DHT22;15667;52.376;9.708;2022-11-04T00:30:25;9.80;99.90
28438;DHT22;15667;52.376;9.708;2022-11-04T00:32:54;11.60;99.90
28438;DHT22;15667;52.376;9.708;2022-11-04T00:35:47;10.70;99.90
28438;DHT22;15667;52.376;9.708;2022-11-04T00:38:34;10.80;99.90
28438;DHT22;15667;52.376;9.708;2022-11-04T00:41:03;10.30;99.90
28438;DHT22;15667;52.376;9.708;2022-11-04T00:43:54;10.70;99.90
28438;DHT22;15667;52.376;9.708;2022-11-04T00:46:29;9.50;99.90
28438;DHT22;15667;52.376;9.708;2022-11-04T00:49:06;11.00;99.90
28438;DHT22;15667;52.376;9.708;2022-11-04T00:55:01;10.30;99.90
28438;DHT22;15667;52.376;9.708;2022-11-04T00:58:26;9.90;99.90
28438;DHT22;15667;52.376;9.708;2022-11-04T01:01:15;11.10;99.90
28438;DHT22;15667;52.376;9.708;2022-11-04T01:03:45;11.10;99.90
28438;DHT22;15667;52.376;9.708;2022-11-04T01:06:14;11.00;99.90
28438;DHT22;15667;52.376;9.708;2022-11-04T01:08:40;11.30;99.90
28438;DHT22;15667;52.376;9.708;2022-11-04T01:11:08;10.90;99.90
28438;DHT22;15667;52.376;9.708;2022-11-04T01:13:34;10.90;99.90
28438;DHT22;15667;52.376;9.708;2022-11-04T01:16:02;11.00;99.90
28438;DHT22;15667;52.376;9.708;2022-11-04T01:18:31;10.80;99.90
28438;DHT22;15667;52.376;9.708;2022-11-04T01:21:01;11.70;99.90
28438;DHT22;15667;52.376;9.708;2022-11-04T01:23:27;10.20;99.90
28438;DHT22;15667;52.376;9.708;2022-11-04T01:25:52;11.00;99.90
28438;DHT22;15667;52.376;9.708;2022-11-04T01:28:18;10.80;99.90
28438;DHT22;15667;52.376;9.708;2022-11-04T01:30:43;11.80;99.90
28438;DHT22;15667;52.376;9.708;2022-11-04T01:33:09;10.70;99.90
28438;DHT22;15667;52.376;9.708;2022-11-04T01:35:35;10.80;99.90
28438;DHT22;15667;52.376;9.708;2022-11-04T01:38:00;9.80;99.90
28438;DHT22;15667;52.376;9.708;2022-11-04T01:40:29;11.60;99.90
28438;DHT22;15667;52.376;9.708;2022-11-04T01:42:55;10.80;99.90
28438;DHT22;15667;52.376;9.708;2022-11-04T01:45:26;10.80;99.90
28438;DHT22;15667;52.376;9.708;2022-11-04T01:48:08;10.70;99.90
28438;DHT22;15667;52.376;9.708;2022-11-04T01:50:37;10.50;99.90
28438;DHT22;15667;52.376;9.708;2022-11-04T01:53:13;10.70;99.90
28438;DHT22;15667;52.376;9.708;2022-11-04T01:55:43;10.20;99.90
28438;DHT22;15667;52.376;9.708;2022-11-04T01:58:19;10.50;99.90
28438;DHT22;15667;52.376;9.708;2022-11-04T02:00:47;11.60;99.90
28438;DHT22;15667;52.376;9.708;2022-11-04T02:04:13;10.70;99.90
28438;DHT22;15667;52.376;9.708;2022-11-04T02:06:20;10.90;99.90
28438;DHT22;15667;52.376;9.708;2022-11-04T02:08:49;12.30;99.90
28438;DHT22;15667;52.376;9.708;2022-11-04T02:11:18;10.70;99.90
28438;DHT22;15667;52.376;9.708;2022-11-04T02:14:02;10.90;99.90
28438;DHT22;15667;52.376;9.708;2022-11-04T02:16:43;10.90;99.90
28438;DHT22;15667;52.376;9.708;2022-11-04T02:32:06;10.20;99.90
28438;DHT22;15667;52.376;9.708;2022-11-04T02:37:24;10.90;99.90
28438;DHT22;15667;52.376;9.708;2022-11-04T02:40:07;10.90;99.90
28438;DHT22;15667;52.376;9.708;2022-11-04T02:46:15;11.50;99.90
28438;DHT22;15667;52.376;9.708;2022-11-04T02:49:45;10.80;99.90
28438;DHT22;15667;52.376;9.708;2022-11-04T02:52:28;10.80;99.90
28438;DHT22;15667;52.376;9.708;2022-11-04T02:55:38;10.90;99.90
28438;DHT22;15667;52.376;9.708;2022-11-04T02:58:17;10.80;99.90
28438;DHT22;15667;52.376;9.708;2022-11-04T03:10:22;11.60;99.90
28438;DHT22;15667;52.376;9.708;2022-11-04T03:15:56;10.90;99.90
28438;DHT22;15667;52.376;9.708;2022-11-04T03:35:38;10.70;99.90
28438;DHT22;15667;52.376;9.708;2022-11-04T03:38:19;11.30;99.90
28438;DHT22;15667;52.376;9.708;2022-11-04T03:41:54;10.60;99.90
28438;DHT22;15667;52.376;9.708;2022-11-04T03:45:28;9.70;99.90
28438;DHT22;15667;52.376;9.708;2022-11-04T03:47:30;10.50;99.90
28438;DHT22;15667;52.376;9.708;2022-11-04T03:52:59;10.30;99.90
28438;DHT22;15667;52.376;9.708;2022-11-04T03:59:11;10.40;99.90
28438;DHT22;15667;52.376;9.708;2022-11-04T04:15:12;10.30;99.90
28438;DHT22;15667;52.376;9.708;2022-11-04T04:17:57;10.70;99.90
28438;DHT22;15667;52.376;9.708;2022-11-04T04:20:37;12.20;99.90
28438;DHT22;15667;52.376;9.708;2022-11-04T04:23:34;10.00;99.90
28438;DHT22;15667;52.376;9.708;2022-11-04T04:26:20;11.00;99.90
28438;DHT22;15667;52.376;9.708;2022-11-04T04:29:21;10.80;99.90
28438;DHT22;15667;52.376;9.708;2022-11-04T04:32:03;10.30;99.90
28438;DHT22;15667;52.376;9.708;2022-11-04T04:34:31;10.80;99.90
28438;DHT22;15667;52.376;9.708;2022-11-04T04:37:36;12.40;99.90
28438;DHT22;15667;52.376;9.708;2022-11-04T04:40:18;9.90;99.90
28438;DHT22;15667;52.376;9.708;2022-11-04T04:43:14;11.20;99.90
28438;DHT22;15667;52.376;9.708;2022-11-04T04:45:59;10.90;99.90
28438;DHT22;15667;52.376;9.708;2022-11-04T04:48:26;12.60;99.90
28438;DHT22;15667;52.376;9.708;2022-11-04T04:50:56;11.00;99.90
28438;DHT22;15667;52.376;9.708;2022-11-04T04:53:27;11.90;99.90
28438;DHT22;15667;52.376;9.708;2022-11-04T04:55:56;11.00;99.90
28438;DHT22;15667;52.376;9.708;2022-11-04T05:01:14;10.90;99.90
28438;DHT22;15667;52.376;9.708;2022-11-04T05:03:45;10.80;99.90
28438;DHT22;15667;52.376;9.708;2022-11-04T05:06:10;12.40;99.90
28438;DHT22;15667;52.376;9.708;2022-11-04T05:08:57;12.30;99.90
28438;DHT22;15667;52.376;9.708;2022-11-04T05:17:30;10.20;99.90
28438;DHT22;15667;52.376;9.708;2022-11-04T05:19:56;10.60;99.90
28438;DHT22;15667;52.376;9.708;2022-11-04T05:22:24;10.80;99.90
28438;DHT22;15667;52.376;9.708;2022-11-04T05:24:50;10.60;99.90
28438;DHT22;15667;52.376;9.708;2022-11-04T05:27:19;11.40;99.90
28438;DHT22;15667;52.376;9.708;2022-11-04T05:29:44;11.40;99.90
28438;DHT22;15667;52.376;9.708;2022-11-04T05:32:14;12.20;99.90
28438;DHT22;15667;52.376;9.708;2022-11-04T05:34:43;12.10;99.90
28438;DHT22;15667;52.376;9.708;2022-11-04T05:37:09;10.60;99.90
28438;DHT22;15667;52.376;9.708;2022-11-04T05:39:34;10.60;99.90
28438;DHT22;15667;52.376;9.708;2022-11-04T05:42:00;10.60;99.90
28438;DHT22;15667;52.376;9.708;2022-11-04T05:44:26;10.60;99.90
28438;DHT22;15667;52.376;9.708;2022-11-04T05:46:51;10.90;99.90
28438;DHT22;15667;52.376;9.708;2022-11-04T05:49:17;10.70;99.90
28438;DHT22;15667;52.376;9.708;2022-11-04T05:51:46;10.50;99.90
28438;DHT22;15667;52.376;9.708;2022-11-04T05:54:11;10.50;99.90
28438;DHT22;15667;52.376;9.708;2022-11-04T05:56:37;10.50;99.90
28438;DHT22;15667;52.376;9.708;2022-11-04T05:59:03;10.50;99.90
28438;DHT22;15667;52.376;9.708;2022-11-04T06:01:34;10.50;99.90
28438;DHT22;15667;52.376;9.708;2022-11-04T06:04:01;10.50;99.90
28438;DHT22;15667;52.376;9.708;2022-11-04T06:06:30;11.70;99.90
28438;DHT22;15667;52.376;9.708;2022-11-04T06:08:56;10.20;99.90
28438;DHT22;15667;52.376;9.708;2022-11-04T06:11:23;10.50;99.90
28438;DHT22;15667;52.376;9.708;2022-11-04T06:13:50;10.70;99.90
28438;DHT22;15667;52.376;9.708;2022-11-04T06:16:16;10.60;99.90
28438;DHT22;15667;52.376;9.708;2022-11-04T06:18:41;10.60;99.90
28438;DHT22;15667;52.376;9.708;2022-11-04T06:23:41;10.60;99.90
28438;DHT22;15667;52.376;9.708;2022-11-04T06:26:07;10.60;99.90
28438;DHT22;15667;52.376;9.708;2022-11-04T06:28:33;10.50;99.90
28438;DHT22;15667;52.376;9.708;2022-11-04T06:31:00;10.70;99.90
28438;DHT22;15667;52.376;9.708;2022-11-04T06:33:28;10.50;99.90
28438;DHT22;15667;52.376;9.708;2022-11-04T06:35:58;10.50;99.90
28438;DHT22;15667;52.376;9.708;2022-11-04T06:38:24;10.50;99.90
28438;DHT22;15667;52.376;9.708;2022-11-04T06:40:49;10.50;99.90
28438;DHT22;15667;52.376;9.708;2022-11-04T06:43:15;10.50;99.90
28438;DHT22;15667;52.376;9.708;2022-11-04T06:45:41;10.50;99.90
28438;DHT22;15667;52.376;9.708;2022-11-04T06:48:06;10.50;99.90
28438;DHT22;15667;52.376;9.708;2022-11-04T07:17:54;10.90;99.90
28438;DHT22;15667;52.376;9.708;2022-11-04T07:21:05;10.90;99.90
28438;DHT22;15667;52.376;9.708;2022-11-04T07:27:37;10.90;99.90
28438;DHT22;15667;52.376;9.708;2022-11-04T07:30:31;10.90;99.90
28438;DHT22;15667;52.376;9.708;2022-11-04T07:33:11;11.00;99.90
28438;DHT22;15667;52.376;9.708;2022-11-04T07:35:39;11.10;99.90
28438;DHT22;15667;52.376;9.708;2022-11-04T07:38:05;11.00;99.90
28438;DHT22;15667;52.376;9.708;2022-11-04T07:40:31;11.00;99.90
28438;DHT22;15667;52.376;9.708;2022-11-04T07:42:59;11.00;99.90
28438;DHT22;15667;52.376;9.708;2022-11-04T08:06:10;11.00;99.90
28438;DHT22;15667;52.376;9.708;2022-11-04T08:33:31;11.30;99.90
28438;DHT22;15667;52.376;9.708;2022-11-04T08:40:35;11.40;99.90
28438;DHT22;15667;52.376;9.708;2022-11-04T08:57:23;11.30;99.90
28438;DHT22;15667;52.376;9.708;2022-11-04T08:59:49;11.40;99.90
28438;DHT22;15667;52.376;9.708;2022-11-04T09:02:15;11.40;99.90
28438;DHT22;15667;52.376;9.708;2022-11-04T09:04:41;11.70;99.90
28438;DHT22;15667;52.376;9.708;2022-11-04T09:07:07;11.70;99.90
28438;DHT22;15667;52.376;9.708;2022-11-04T09:09:33;11.80;99.90
28438;DHT22;15667;52.376;9.708;2022-11-04T09:11:58;11.60;99.90
28438;DHT22;15667;52.376;9.708;2022-11-04T09:14:24;11.70;99.90
28438;DHT22;15667;52.376;9.708;2022-11-04T09:16:50;11.80;99.90
28438;DHT22;15667;52.376;9.708;2022-11-04T09:19:15;12.30;99.90
28438;DHT22;15667;52.376;9.708;2022-11-04T09:21:41;11.80;99.90
28438;DHT22;15667;52.376;9.708;2022-11-04T09:24:07;11.90;99.90
28438;DHT22;15667;52.376;9.708;2022-11-04T09:26:33;11.80;99.90
28438;DHT22;15667;52.376;9.708;2022-11-04T09:28:59;11.80;99.90
28438;DHT22;15667;52.376;9.708;2022-11-04T09:31:27;11.80;99.90
28438;DHT22;15667;52.376;9.708;2022-11-04T09:33:53;11.80;99.90
28438;DHT22;15667;52.376;9.708;2022-11-04T09:36:19;13.20;99.90
28438;DHT22;15667;52.376;9.708;2022-11-04T09:38:45;12.10;99.90
28438;DHT22;15667;52.376;9.708;2022-11-04T09:44:08;11.60;99.90
28438;DHT22;15667;52.376;9.708;2022-11-04T09:46:36;11.60;99.90
28438;DHT22;15667;52.376;9.708;2022-11-04T09:49:05;11.60;99.90
28438;DHT22;15667;52.376;9.708;2022-11-04T09:51:32;11.60;99.90
28438;DHT22;15667;52.376;9.708;2022-11-04T09:54:03;11.60;99.90
28438;DHT22;15667;52.376;9.708;2022-11-04T09:56:38;12.00;99.90
28438;DHT22;15667;52.376;9.708;2022-11-04T09:59:09;11.70;99.90
28438;DHT22;15667;52.376;9.708;2022-11-04T10:01:45;11.70;99.90
28438;DHT22;15667;52.376;9.708;2022-11-04T10:04:23;11.70;99.90
28438;DHT22;15667;52.376;9.708;2022-11-04T10:09:44;12.50;99.90
28438;DHT22;15667;52.376;9.708;2022-11-04T10:21:02;11.80;99.90
28438;DHT22;15667;52.376;9.708;2022-11-04T10:26:23;12.20;99.90
28438;DHT22;15667;52.376;9.708;2022-11-04T10:28:57;12.00;99.90
28438;DHT22;15667;52.376;9.708;2022-11-04T10:31:24;12.50;99.90
28438;DHT22;15667;52.376;9.708;2022-11-04T10:33:58;12.00;99.90
28438;DHT22;15667;52.376;9.708;2022-11-04T10:36:25;12.10;99.90
28438;DHT22;15667;52.376;9.708;2022-11-04T10:38:55;12.30;99.90
28438;DHT22;15667;52.376;9.708;2022-11-04T10:41:42;12.60;99.90
28438;DHT22;15667;52.376;9.708;2022-11-04T10:44:19;12.60;99.90
28438;DHT22;15667;52.376;9.708;2022-11-04T10:49:48;12.70;99.90
28438;DHT22;15667;52.376;9.708;2022-11-04T10:52:16;12.60;99.90
28438;DHT22;15667;52.376;9.708;2022-11-04T10:54:46;12.50;99.90
28438;DHT22;15667;52.376;9.708;2022-11-04T10:57:19;12.50;99.90
28438;DHT22;15667;52.376;9.708;2022-11-04T11:00:03;12.40;99.90
28438;DHT22;15667;52.376;9.708;2022-11-04T11:07:40;12.70;99.90
28438;DHT22;15667;52.376;9.708;2022-11-04T11:10:36;12.60;99.90
28438;DHT22;15667;52.376;9.708;2022-11-04T11:16:47;12.40;99.90
28438;DHT22;15667;52.376;9.708;2022-11-04T11:33:55;12.70;99.90
28438;DHT22;15667;52.376;9.708;2022-11-04T11:43:44;12.90;99.90
28438;DHT22;15667;52.376;9.708;2022-11-04T11:46:38;13.00;99.90
28438;DHT22;15667;52.376;9.708;2022-11-04T11:57:07;13.20;99.90
28438;DHT22;15667;52.376;9.708;2022-11-04T12:00:07;13.00;99.90
28438;DHT22;15667;52.376;9.708;2022-11-04T12:05:10;13.00;99.90
28438;DHT22;15667;52.376;9.708;2022-11-04T12:10:45;12.90;99.90
28438;DHT22;15667;52.376;9.708;2022-11-04T12:13:30;13.00;99.90
28438;DHT22;15667;52.376;9.708;2022-11-04T12:16:16;13.10;99.90
28438;DHT22;15667;52.376;9.708;2022-11-04T12:21:32;13.10;99.90
28438;DHT22;15667;52.376;9.708;2022-11-04T12:26:55;13.00;99.90
28438;DHT22;15667;52.376;9.708;2022-11-04T12:29:50;13.10;99.90
28438;DHT22;15667;52.376;9.708;2022-11-04T12:32:33;13.00;99.90
28438;DHT22;15667;52.376;9.708;2022-11-04T12:40:50;13.10;99.90
28438;DHT22;15667;52.376;9.708;2022-11-04T12:56:39;13.10;99.90
28438;DHT22;15667;52.376;9.708;2022-11-04T13:02:19;13.10;99.90
28438;DHT22;15667;52.376;9.708;2022-11-04T13:11:00;13.10;99.90
28438;DHT22;15667;52.376;9.708;2022-11-04T13:13:35;13.10;99.90
28438;DHT22;15667;52.376;9.708;2022-11-04T13:16:05;13.10;99.90
28438;DHT22;15667;52.376;9.708;2022-11-04T13:18:36;13.20;99.90
28438;DHT22;15667;52.376;9.708;2022-11-04T13:21:21;13.20;99.90
28438;DHT22;15667;52.376;9.708;2022-11-04T13:24:05;13.10;99.90
28438;DHT22;15667;52.376;9.708;2022-11-04T13:26:32;13.10;99.90
28438;DHT22;15667;52.376;9.708;2022-11-04T13:29:11;13.20;99.90
28438;DHT22;15667;52.376;9.708;2022-11-04T13:36:48;13.10;99.90
28438;DHT22;15667;52.376;9.708;2022-11-04T13:39:21;13.10;99.90
28438;DHT22;15667;52.376;9.708;2022-11-04T13:44:33;12.90;99.90
28438;DHT22;15667;52.376;9.708;2022-11-04T13:47:04;13.60;99.90
28438;DHT22;15667;52.376;9.708;2022-11-04T13:49:32;12.80;99.90
28438;DHT22;15667;52.376;9.708;2022-11-04T13:52:09;12.80;99.90
28438;DHT22;15667;52.376;9.708;2022-11-04T13:55:22;13.10;99.90
28438;DHT22;15667;52.376;9.708;2022-11-04T13:57:51;12.50;99.90
28438;DHT22;15667;52.376;9.708;2022-11-04T14:00:21;12.70;99.90
28438;DHT22;15667;52.376;9.708;2022-11-04T14:02:52;12.70;99.90
28438;DHT22;15667;52.376;9.708;2022-11-04T14:10:45;12.60;99.90
28438;DHT22;15667;52.376;9.708;2022-11-04T14:13:44;12.60;99.90
28438;DHT22;15667;52.376;9.708;2022-11-04T14:18:50;13.00;99.90
28438;DHT22;15667;52.376;9.708;2022-11-04T14:21:24;12.80;99.90
28438;DHT22;15667;52.376;9.708;2022-11-04T14:24:12;12.80;99.90
28438;DHT22;15667;52.376;9.708;2022-11-04T14:29:21;12.70;99.90
28438;DHT22;15667;52.376;9.708;2022-11-04T14:31:51;12.70;99.90
28438;DHT22;15667;52.376;9.708;2022-11-04T14:34:27;12.60;99.90
28438;DHT22;15667;52.376;9.708;2022-11-04T14:37:31;12.70;99.90
28438;DHT22;15667;52.376;9.708;2022-11-04T14:39:59;12.50;99.90
28438;DHT22;15667;52.376;9.708;2022-11-04T14:42:50;12.40;99.90
28438;DHT22;15667;52.376;9.708;2022-11-04T14:45:22;12.40;99.90
28438;DHT22;15667;52.376;9.708;2022-11-04T14:47:53;12.30;99.90
28438;DHT22;15667;52.376;9.708;2022-11-04T14:50:23;12.40;99.90
28438;DHT22;15667;52.376;9.708;2022-11-04T14:52:55;12.40;99.90
28438;DHT22;15667;52.376;9.708;2022-11-04T14:55:27;12.50;99.90
28438;DHT22;15667;52.376;9.708;2022-11-04T14:57:57;12.40;99.90
28438;DHT22;15667;52.376;9.708;2022-11-04T15:00:27;12.30;99.90
28438;DHT22;15667;52.376;9.708;2022-11-04T15:03:13;12.30;99.90
28438;DHT22;15667;52.376;9.708;2022-11-04T15:05:40;12.60;99.90
28438;DHT22;15667;52.376;9.708;2022-11-04T15:11:00;12.40;99.90
28438;DHT22;15667;52.376;9.708;2022-11-04T15:13:27;12.50;99.90
28438;DHT22;15667;52.376;9.708;2022-11-04T15:15:55;12.40;99.90
28438;DHT22;15667;52.376;9.708;2022-11-04T15:18:25;12.40;99.90
28438;DHT22;15667;52.376;9.708;2022-11-04T15:21:02;12.50;99.90
28438;DHT22;15667;52.376;9.708;2022-11-04T15:23:34;12.40;99.90
28438;DHT22;15667;52.376;9.708;2022-11-04T15:26:02;12.60;99.90
28438;DHT22;15667;52.376;9.708;2022-11-04T15:28:34;13.60;99.90
28438;DHT22;15667;52.376;9.708;2022-11-04T15:33:45;12.10;99.90
28438;DHT22;15667;52.376;9.708;2022-11-04T15:36:24;12.10;99.90
28438;DHT22;15667;52.376;9.708;2022-11-04T15:38:57;11.90;99.90
28438;DHT22;15667;52.376;9.708;2022-11-04T15:41:26;11.80;99.90
28438;DHT22;15667;52.376;9.708;2022-11-04T15:44:20;11.70;99.90
28438;DHT22;15667;52.376;9.708;2022-11-04T15:46:48;11.70;99.90
28438;DHT22;15667;52.376;9.708;2022-11-04T15:51:53;11.60;99.90
28438;DHT22;15667;52.376;9.708;2022-11-04T15:54:38;12.40;99.90
28438;DHT22;15667;52.376;9.708;2022-11-04T15:57:17;11.50;99.90
28438;DHT22;15667;52.376;9.708;2022-11-04T15:59:57;11.40;99.90
28438;DHT22;15667;52.376;9.708;2022-11-04T16:02:31;11.40;99.90
28438;DHT22;15667;52.376;9.708;2022-11-04T16:05:29;11.30;99.90
28438;DHT22;15667;52.376;9.708;2022-11-04T16:08:20;11.30;99.90
28438;DHT22;15667;52.376;9.708;2022-11-04T16:10:47;11.20;99.90
28438;DHT22;15667;52.376;9.708;2022-11-04T16:15:42;11.20;99.90
28438;DHT22;15667;52.376;9.708;2022-11-04T16:18:35;11.10;99.90
28438;DHT22;15667;52.376;9.708;2022-11-04T16:21:07;11.10;99.90
28438;DHT22;15667;52.376;9.708;2022-11-04T16:23:45;11.10;99.90
28438;DHT22;15667;52.376;9.708;2022-11-04T16:26:12;11.00;99.90
28438;DHT22;15667;52.376;9.708;2022-11-04T16:28:38;11.00;99.90
28438;DHT22;15667;52.376;9.708;2022-11-04T16:31:08;11.00;99.90
28438;DHT22;15667;52.376;9.708;2022-11-04T16:33:48;11.30;99.90
28438;DHT22;15667;52.376;9.708;2022-11-04T16:36:14;11.00;99.90
28438;DHT22;15667;52.376;9.708;2022-11-04T16:38:57;11.20;99.90
28438;DHT22;15667;52.376;9.708;2022-11-04T16:41:26;11.20;99.90
28438;DHT22;15667;52.376;9.708;2022-11-04T16:43:53;11.20;99.90
28438;DHT22;15667;52.376;9.708;2022-11-04T16:46:19;11.10;99.90
28438;DHT22;15667;52.376;9.708;2022-11-04T16:48:46;11.00;99.90
28438;DHT22;15667;52.376;9.708;2022-11-04T16:51:32;11.10;99.90
28438;DHT22;15667;52.376;9.708;2022-11-04T16:53:58;11.00;99.90
28438;DHT22;15667;52.376;9.708;2022-11-04T16:56:24;11.00;99.90
28438;DHT22;15667;52.376;9.708;2022-11-04T16:58:51;11.00;99.90
28438;DHT22;15667;52.376;9.708;2022-11-04T17:01:17;11.00;99.90
28438;DHT22;15667;52.376;9.708;2022-11-04T17:03:43;10.90;99.90
28438;DHT22;15667;52.376;9.708;2022-11-04T17:06:11;11.00;99.90
28438;DHT22;15667;52.376;9.708;2022-11-04T17:08:38;11.00;99.90
28438;DHT22;15667;52.376;9.708;2022-11-04T17:11:04;11.00;99.90
28438;DHT22;15667;52.376;9.708;2022-11-04T17:13:30;11.10;99.90
28438;DHT22;15667;52.376;9.708;2022-11-04T17:15:56;10.90;99.90
28438;DHT22;15667;52.376;9.708;2022-11-04T17:18:22;10.80;99.90
28438;DHT22;15667;52.376;9.708;2022-11-04T17:20:50;10.70;99.90
28438;DHT22;15667;52.376;9.708;2022-11-04T17:23:16;11.20;99.90
28438;DHT22;15667;52.376;9.708;2022-11-04T17:25:42;10.70;99.90
28438;DHT22;15667;52.376;9.708;2022-11-04T17:28:09;10.60;99.90
28438;DHT22;15667;52.376;9.708;2022-11-04T17:30:34;10.60;99.90
28438;DHT22;15667;52.376;9.708;2022-11-04T17:33:00;10.00;99.90
28438;DHT22;15667;52.376;9.708;2022-11-04T17:35:26;10.50;99.90
28438;DHT22;15667;52.376;9.708;2022-11-04T17:37:53;10.50;99.90
28438;DHT22;15667;52.376;9.708;2022-11-04T17:40:20;10.50;99.90
28438;DHT22;15667;52.376;9.708;2022-11-04T17:42:46;10.50;99.90
28438;DHT22;15667;52.376;9.708;2022-11-04T17:45:31;10.50;99.90
28438;DHT22;15667;52.376;9.708;2022-11-04T17:47:57;10.40;99.90
28438;DHT22;15667;52.376;9.708;2022-11-04T17:50:26;10.30;99.90
28438;DHT22;15667;52.376;9.708;2022-11-04T17:52:51;10.40;99.90
28438;DHT22;15667;52.376;9.708;2022-11-04T17:55:17;10.30;99.90
28438;DHT22;15667;52.376;9.708;2022-11-04T17:57:42;10.30;99.90
28438;DHT22;15667;52.376;9.708;2022-11-04T18:00:09;11.30;99.90
28438;DHT22;15667;52.376;9.708;2022-11-04T18:02:41;10.30;99.90
28438;DHT22;15667;52.376;9.708;2022-11-04T18:05:10;10.30;99.90
28438;DHT22;15667;52.376;9.708;2022-11-04T18:07:38;11.40;99.90
28438;DHT22;15667;52.376;9.708;2022-11-04T18:10:04;10.50;99.90
28438;DHT22;15667;52.376;9.708;2022-11-04T18:12:30;10.30;99.90
28438;DHT22;15667;52.376;9.708;2022-11-04T18:15:07;10.20;99.90
28438;DHT22;15667;52.376;9.708;2022-11-04T18:17:41;10.20;99.90
28438;DHT22;15667;52.376;9.708;2022-11-04T18:20:28;11.50;99.90
28438;DHT22;15667;52.376;9.708;2022-11-04T18:22:59;9.40;99.90
28438;DHT22;15667;52.376;9.708;2022-11-04T18:25:48;10.00;99.90
28438;DHT22;15667;52.376;9.708;2022-11-04T18:28:38;9.80;99.90
28438;DHT22;15667;52.376;9.708;2022-11-04T18:31:13;9.90;99.90
28438;DHT22;15667;52.376;9.708;2022-11-04T18:33:40;10.10;99.90
28438;DHT22;15667;52.376;9.708;2022-11-04T18:36:08;10.30;99.90
28438;DHT22;15667;52.376;9.708;2022-11-04T18:38:33;10.10;99.90
28438;DHT22;15667;52.376;9.708;2022-11-04T18:40:59;10.00;99.90
28438;DHT22;15667;52.376;9.708;2022-11-04T18:43:25;10.00;99.90
28438;DHT22;15667;52.376;9.708;2022-11-04T18:45:51;10.40;99.90
28438;DHT22;15667;52.376;9.708;2022-11-04T18:48:18;9.80;99.90
28438;DHT22;15667;52.376;9.708;2022-11-04T18:50:44;11.00;99.90
28438;DHT22;15667;52.376;9.708;2022-11-04T18:53:10;11.20;99.90
28438;DHT22;15667;52.376;9.708;2022-11-04T18:55:36;10.00;99.90
28438;DHT22;15667;52.376;9.708;2022-11-04T18:58:02;10.10;99.90
28438;DHT22;15667;52.376;9.708;2022-11-04T19:00:28;10.20;99.90
28438;DHT22;15667;52.376;9.708;2022-11-04T19:02:55;10.30;99.90
28438;DHT22;15667;52.376;9.708;2022-11-04T19:05:20;10.60;99.90
28438;DHT22;15667;52.376;9.708;2022-11-04T19:07:46;10.10;99.90
28438;DHT22;15667;52.376;9.708;2022-11-04T19:10:11;11.00;99.90
28438;DHT22;15667;52.376;9.708;2022-11-04T19:12:37;10.00;99.90
28438;DHT22;15667;52.376;9.708;2022-11-04T19:15:22;10.70;99.90
28438;DHT22;15667;52.376;9.708;2022-11-04T19:17:48;10.00;99.90
28438;DHT22;15667;52.376;9.708;2022-11-04T19:20:14;9.90;99.90
28438;DHT22;15667;52.376;9.708;2022-11-04T19:22:40;10.00;99.90
28438;DHT22;15667;52.376;9.708;2022-11-04T19:25:07;9.90;99.90
28438;DHT22;15667;52.376;9.708;2022-11-04T19:27:33;10.00;99.90
28438;DHT22;15667;52.376;9.708;2022-11-04T19:29:58;10.00;99.90
28438;DHT22;15667;52.376;9.708;2022-11-04T19:32:24;11.40;99.90
28438;DHT22;15667;52.376;9.708;2022-11-04T19:34:49;9.80;99.90
28438;DHT22;15667;52.376;9.708;2022-11-04T19:37:15;8.90;99.90
28438;DHT22;15667;52.376;9.708;2022-11-04T19:39:41;10.80;99.90
28438;DHT22;15667;52.376;9.708;2022-11-04T19:42:06;9.80;99.90
28438;DHT22;15667;52.376;9.708;2022-11-04T19:44:51;9.80;99.90
28438;DHT22;15667;52.376;9.708;2022-11-04T19:47:16;10.10;99.90
28438;DHT22;15667;52.376;9.708;2022-11-04T19:49:42;10.40;99.90
28438;DHT22;15667;52.376;9.708;2022-11-04T19:52:11;10.90;99.90
28438;DHT22;15667;52.376;9.708;2022-11-04T19:54:36;9.60;99.90
28438;DHT22;15667;52.376;9.708;2022-11-04T19:57:02;9.60;99.90
28438;DHT22;15667;52.376;9.708;2022-11-04T19:59:28;9.70;99.90
28438;DHT22;15667;52.376;9.708;2022-11-04T20:01:53;11.20;99.90
28438;DHT22;15667;52.376;9.708;2022-11-04T20:04:19;9.80;99.90
28438;DHT22;15667;52.376;9.708;2022-11-04T20:06:45;11.00;99.90
28438;DHT22;15667;52.376;9.708;2022-11-04T20:09:11;11.10;99.90
28438;DHT22;15667;52.376;9.708;2022-11-04T20:11:38;9.80;99.90
28438;DHT22;15667;52.376;9.708;2022-11-04T20:14:25;10.70;99.90
28438;DHT22;15667;52.376;9.708;2022-11-04T20:16:51;9.80;99.90
28438;DHT22;15667;52.376;9.708;2022-11-04T20:19:17;9.70;99.90
28438;DHT22;15667;52.376;9.708;2022-11-04T20:21:43;10.80;99.90
28438;DHT22;15667;52.376;9.708;2022-11-04T20:24:10;9.70;99.90
28438;DHT22;15667;52.376;9.708;2022-11-04T20:26:38;10.90;99.90
28438;DHT22;15667;52.376;9.708;2022-11-04T20:29:05;9.60;99.90
28438;DHT22;15667;52.376;9.708;2022-11-04T20:31:33;10.20;99.90
28438;DHT22;15667;52.376;9.708;2022-11-04T20:34:02;10.30;99.90
28438;DHT22;15667;52.376;9.708;2022-11-04T20:36:30;11.10;99.90
28438;DHT22;15667;52.376;9.708;2022-11-04T20:38:56;9.60;99.90
28438;DHT22;15667;52.376;9.708;2022-11-04T20:41:24;10.20;99.90
28438;DHT22;15667;52.376;9.708;2022-11-04T20:43:49;9.60;99.90
28438;DHT22;15667;52.376;9.708;2022-11-04T20:46:21;11.00;99.90
28438;DHT22;15667;52.376;9.708;2022-11-04T20:48:50;10.90;99.90
28438;DHT22;15667;52.376;9.708;2022-11-04T20:51:19;10.60;99.90
28438;DHT22;15667;52.376;9.708;2022-11-04T20:53:46;9.60;99.90
28438;DHT22;15667;52.376;9.708;2022-11-04T20:56:16;9.60;99.90
28438;DHT22;15667;52.376;9.708;2022-11-04T20:58:43;9.40;99.90
28438;DHT22;15667;52.376;9.708;2022-11-04T21:01:12;9.50;99.90
28438;DHT22;15667;52.376;9.708;2022-11-04T21:03:38;11.00;99.90
28438;DHT22;15667;52.376;9.708;2022-11-04T21:06:04;10.00;99.90
28438;DHT22;15667;52.376;9.708;2022-11-04T21:08:34;9.40;99.90
28438;DHT22;15667;52.376;9.708;2022-11-04T21:11:00;10.60;99.90
28438;DHT22;15667;52.376;9.708;2022-11-04T21:13:26;9.30;99.90
28438;DHT22;15667;52.376;9.708;2022-11-04T21:15:54;9.40;99.90